Aviation Digital Data Service (ADDS)

Output produced by METARs form (1811 UTC 01 August 2015)
found at http://aviationweather.gov/adds/metars/
 
KAND 011729Z 0118/0218 06006KT P6SM BKN070 
     FM012200 34005KT P6SM FEW070 
     FM020500 08004KT P6SM FEW250 
     FM021400 06008KT P6SM SKC